首页
METAR-TAF:

METAR-TAF

机场 :

McChord Air Force Base

塔科马, 华盛顿, 美国

纬度: 47-09N, 经度: 122-29W, 海拔: 98米

当前天气观测

该预报发布于44分钟前的05:55 UTC
静风
温度 24°C
湿度 44%
气压 1015 hPa
能見度: 16.1公里
天空无云

METAR: KTCM 140555Z AUTO 00000KT 10SM CLR 24/11 A2997 RMK AO2 SLP150 T02360106 10310 20236 53005 $

时间: 23:39 (06:39 UTC)

预报

该预报发布于11小时和39分钟前的19:00 UTC
预报有效从13日的 19点(UTC)到 14日的 19点(UTC)
风速12节,风向东北,有时为18节阵风
能見度: 9000
天空无云
成为
从 14日的 01点(UTC)到 14日的 02点(UTC)
风速6节,风向东转东北
能见度10公里或以上
天空无云
成为
从 14日的 07点(UTC)到 14日的 08点(UTC)
风速4节,风向多变
能见度10公里或以上
少量云层高于5000英尺
成为
从 14日的 13点(UTC)到 14日的 14点(UTC)
风速6节,风向西转西南
能見度: 1413
少量云层高于2000英尺

TAF: KTCM 131900Z 1319/1419 04012G18KT 9000 HZ SKC QNH2996INS BECMG 1401/1402 06006KT 9999 NSW SKC QNH2996INS BECMG 1407/1408 VRB04KT 9999 FEW050 QNH3000INS BECMG 1413/1414 24006KT 9999 FEW020 QNH3005INS TX31/1400Z TN13/1413Z LAST NO AMDS AFT 1319 NEXT 1413

超过4000个机场的气象观测和天气预报(METAR&TAF报告)。

可查询的气象台以黄色和红色小点在地图上表示。

将鼠标移到小点上方,可查看气象台名称。

然后点击查看天气观测和预报。

如需切换地图:点击带黑十字的绿色按钮放大地图;点击带横线的绿色按钮缩小地图;或者点击绿色箭头查看邻近地区的地图。


METAR-TAF: